Time;durP1;ratioP1;P1;durP2;ratioP2;P2;SDS_P1;SDS_P2;PMS_P1;PMS_P2;Temp;Humidity;BMP_temperature;BMP_pressure;BME280_temperature;BME280_humidity;BME280_pressure;Samples;Min_cycle;Max_cycle;Signal;HPM_P1;HPM_P2
2023/12/23 00:00:40;;;;;;;;;3.25;1.00;;;;;15.13;100.00;101348.31;2084445;28;45476;-62
2023/12/23 00:01:42;;;;;;;;;3.00;2.00;;;;;15.20;100.00;101357.00;2084492;28;44791;-61
2023/12/23 00:02:43;;;;;;;;;1.50;1.25;;;;;15.20;100.00;101359.66;2089008;28;44837;-60
2023/12/23 00:03:43;;;;;;;;;3.67;2.67;;;;;15.20;100.00;101373.03;2089156;28;44934;-62
2023/12/23 00:04:43;;;;;;;;;1.00;1.00;;;;;15.25;100.00;101368.44;2088828;28;45264;-60
2023/12/23 00:05:44;;;;;;;;;2.00;1.00;;;;;15.25;100.00;101358.63;2088768;28;45447;-60
2023/12/23 00:06:44;;;;;;;;;1.00;1.00;;;;;15.28;100.00;101371.91;2088289;28;44872;-61
2023/12/23 00:07:45;;;;;;;;;2.00;0.67;;;;;15.28;100.00;101365.66;2088856;28;44819;-61
2023/12/23 00:08:45;;;;;;;;;2.67;2.67;;;;;15.24;100.00;101367.53;2088530;28;45084;-62
2023/12/23 00:09:45;;;;;;;;;1.00;1.00;;;;;15.26;100.00;101375.53;2082530;28;44877;-61
2023/12/23 00:10:46;;;;;;;;;1.00;1.00;;;;;15.21;100.00;101369.44;2088256;28;44969;-62
2023/12/23 00:11:46;;;;;;;;;2.00;2.00;;;;;15.19;100.00;101377.50;2099183;28;44977;-60
2023/12/23 00:12:46;;;;;;;;;2.00;2.00;;;;;15.20;100.00;101376.59;2096929;28;44969;-61
2023/12/23 00:13:47;;;;;;;;;4.00;4.00;;;;;15.20;100.00;101378.38;2088986;28;44929;-60
2023/12/23 00:14:47;;;;;;;;;3.33;3.00;;;;;15.21;100.00;101374.78;2089003;28;44810;-62
2023/12/23 00:15:47;;;;;;;;;1.00;1.00;;;;;15.20;100.00;101373.91;2081978;28;44880;-61
2023/12/23 00:16:47;;;;;;;;;2.00;2.00;;;;;15.19;100.00;101380.19;2088505;28;44818;-61
2023/12/23 00:17:48;;;;;;;;;2.00;2.00;;;;;15.16;100.00;101382.97;2088649;28;44839;-61
2023/12/23 00:18:48;;;;;;;;;0.33;0.00;;;;;15.19;100.00;101381.97;2089615;28;44813;-62
2023/12/23 00:19:48;;;;;;;;;1.33;1.33;;;;;15.17;100.00;101379.38;2088682;28;45252;-62
2023/12/23 00:20:49;;;;;;;;;4.33;1.00;;;;;15.08;100.00;101381.44;2089245;28;45064;-63
2023/12/23 00:21:49;;;;;;;;;2.00;2.00;;;;;15.07;100.00;101385.91;2086731;28;44979;-60
2023/12/23 00:22:50;;;;;;;;;2.00;2.00;;;;;15.06;100.00;101391.28;2089414;28;45002;-62
2023/12/23 00:23:50;;;;;;;;;2.00;1.33;;;;;15.05;100.00;101393.09;2088770;28;45004;-61
2023/12/23 00:24:50;;;;;;;;;3.33;1.00;;;;;15.05;100.00;101394.88;2088878;28;44837;-60
2023/12/23 00:25:51;;;;;;;;;1.00;1.00;;;;;15.07;100.00;101391.25;2088737;28;44972;-60
2023/12/23 00:26:51;;;;;;;;;1.67;0.00;;;;;15.08;100.00;101392.13;2086870;28;45042;-61
2023/12/23 00:27:51;;;;;;;;;1.00;1.00;;;;;15.10;100.00;101388.47;2088879;28;44940;-62
2023/12/23 00:28:52;;;;;;;;;4.00;1.00;;;;;15.16;100.00;101388.31;2089189;28;45021;-61
2023/12/23 00:29:52;;;;;;;;;3.00;1.00;;;;;15.17;100.00;101391.84;2096390;28;44968;-61
2023/12/23 00:30:53;;;;;;;;;1.00;1.00;;;;;15.11;100.00;101390.22;2095455;28;45167;-62
2023/12/23 00:31:53;;;;;;;;;3.67;2.33;;;;;15.15;100.00;101399.06;2088874;28;44884;-61
2023/12/23 00:32:53;;;;;;;;;1.00;1.00;;;;;15.15;100.00;101405.28;2082268;28;44961;-61
2023/12/23 00:33:54;;;;;;;;;4.00;1.00;;;;;15.13;100.00;101404.44;2084546;28;45558;-61
2023/12/23 00:34:54;;;;;;;;;1.67;0.00;;;;;15.15;100.00;101401.72;2089009;28;44823;-62
2023/12/23 00:35:54;;;;;;;;;2.33;1.00;;;;;15.13;100.00;101399.09;2088897;28;45305;-62
2023/12/23 00:36:55;;;;;;;;;2.33;1.00;;;;;15.11;100.00;101405.38;2088316;28;44973;-61
2023/12/23 00:37:56;;;;;;;;;2.00;2.00;;;;;15.13;100.00;101396.44;2088874;28;44937;-62
2023/12/23 00:38:56;;;;;;;;;3.00;1.00;;;;;15.14;100.00;101400.84;2088301;28;45021;-61
2023/12/23 00:39:56;;;;;;;;;1.00;1.00;;;;;15.18;100.00;101398.94;2088630;28;44767;-60
2023/12/23 00:40:56;;;;;;;;;1.00;1.00;;;;;15.19;100.00;101393.56;2088841;28;44787;-61
2023/12/23 00:41:57;;;;;;;;;2.00;2.00;;;;;15.19;100.00;101393.56;2088886;28;44865;-61
2023/12/23 00:42:57;;;;;;;;;3.00;1.00;;;;;15.20;100.00;101391.75;2088621;28;45088;-60
2023/12/23 00:43:57;;;;;;;;;1.00;1.00;;;;;15.21;100.00;101393.50;2088700;28;44895;-60
2023/12/23 00:44:58;;;;;;;;;1.00;1.00;;;;;15.17;100.00;101398.06;2087617;28;44969;-60
2023/12/23 00:45:58;;;;;;;;;1.67;1.67;;;;;15.16;100.00;101393.66;2089061;28;44953;-63
2023/12/23 00:46:58;;;;;;;;;1.00;1.00;;;;;15.16;100.00;101387.44;2088784;28;44913;-61
2023/12/23 00:47:59;;;;;;;;;4.00;1.00;;;;;15.16;100.00;101388.31;2088591;28;44931;-60
2023/12/23 00:48:59;;;;;;;;;1.00;1.00;;;;;15.15;100.00;101389.22;2088469;28;44888;-60
2023/12/23 00:49:59;;;;;;;;;1.67;1.67;;;;;15.14;100.00;101386.59;2088335;28;44815;-60
2023/12/23 00:51:00;;;;;;;;;1.00;1.00;;;;;15.14;100.00;101390.16;2087086;28;45403;-61
2023/12/23 00:52:00;;;;;;;;;1.33;1.33;;;;;15.15;100.00;101386.56;2088611;28;44905;-62
2023/12/23 00:53:02;;;;;;;;;1.00;1.00;;;;;15.15;100.00;101388.34;2088411;28;45308;-61
2023/12/23 00:54:02;;;;;;;;;0.00;0.00;;;;;15.14;100.00;101391.94;2089027;28;44800;-62
2023/12/23 00:55:03;;;;;;;;;2.00;1.00;;;;;15.13;100.00;101388.41;2088825;28;45225;-61
2023/12/23 00:56:04;;;;;;;;;0.00;0.00;;;;;15.15;100.00;101388.34;2088812;28;44888;-61
2023/12/23 00:57:04;;;;;;;;;0.67;0.67;;;;;15.12;100.00;101393.78;2088870;28;44881;-61
2023/12/23 00:58:04;;;;;;;;;3.00;1.00;;;;;15.13;100.00;101392.88;2085961;28;44918;-62
2023/12/23 00:59:05;;;;;;;;;1.00;1.00;;;;;15.13;100.00;101390.19;2088562;28;45426;-62
2023/12/23 01:00:06;;;;;;;;;0.00;0.00;;;;;15.12;100.00;101389.31;2088781;28;44941;-61
2023/12/23 01:01:06;;;;;;;;;0.75;0.75;;;;;15.12;100.00;101394.69;2087151;28;44973;-63
2023/12/23 01:02:07;;;;;;;;;1.00;1.00;;;;;15.12;100.00;101389.31;2087869;28;45360;-61
2023/12/23 01:03:07;;;;;;;;;3.67;1.00;;;;;15.13;100.00;101395.56;2087338;28;44914;-62
2023/12/23 01:04:07;;;;;;;;;1.00;1.00;;;;;15.13;100.00;101392.88;2088573;28;44965;-60
2023/12/23 01:05:09;;;;;;;;;1.00;1.00;;;;;15.12;100.00;101389.31;2088423;28;45422;-60
2023/12/23 01:06:09;;;;;;;;;0.50;0.50;;;;;15.13;100.00;101384.84;2088479;28;44791;-63
2023/12/23 01:07:10;;;;;;;;;2.33;0.67;;;;;15.12;100.00;101383.06;2088407;28;45036;-60
2023/12/23 01:08:10;;;;;;;;;1.00;1.00;;;;;15.15;100.00;101391.91;2088525;28;44909;-60
2023/12/23 01:09:11;;;;;;;;;1.00;1.00;;;;;15.13;100.00;101377.72;2085408;28;45143;-62
2023/12/23 01:10:12;;;;;;;;;1.33;1.00;;;;;15.14;100.00;101379.47;2088173;28;45156;-62
2023/12/23 01:11:12;;;;;;;;;0.67;0.67;;;;;15.13;100.00;101376.84;2087859;28;44872;-61
2023/12/23 01:12:13;;;;;;;;;1.00;1.00;;;;;15.12;100.00;101373.28;2088481;28;45494;-61
2023/12/23 01:13:13;;;;;;;;;1.33;1.33;;;;;15.12;100.00;101373.28;2088699;28;44776;-61
2023/12/23 01:14:13;;;;;;;;;1.00;1.00;;;;;15.11;100.00;101373.31;2088455;28;44799;-61
2023/12/23 01:15:14;;;;;;;;;1.00;1.00;;;;;15.10;100.00;101363.53;2088168;28;45047;-61
2023/12/23 01:16:14;;;;;;;;;0.00;0.00;;;;;15.10;100.00;101366.22;2088576;28;44880;-60
2023/12/23 01:17:14;;;;;;;;;1.00;1.00;;;;;15.09;100.00;101364.47;2088416;28;44924;-61
2023/12/23 01:18:16;;;;;;;;;1.33;1.33;;;;;15.09;100.00;101365.34;2088421;28;45011;-62
2023/12/23 01:19:16;;;;;;;;;1.00;1.00;;;;;15.13;100.00;101371.50;2088957;28;44956;-60
2023/12/23 01:20:17;;;;;;;;;1.33;0.67;;;;;15.09;100.00;101359.13;2088239;28;45023;-62
2023/12/23 01:21:20;;;;;;;;;1.67;0.67;;;;;15.10;100.00;101372.44;2088837;28;44941;-60
2023/12/23 01:22:20;;;;;;;;;0.75;0.75;;;;;15.11;100.00;101375.97;2088535;28;45107;-61
2023/12/23 01:23:20;;;;;;;;;1.33;1.00;;;;;15.18;100.00;101381.09;2088521;28;44911;-62
2023/12/23 01:24:21;;;;;;;;;0.33;0.33;;;;;15.20;100.00;101375.72;2088501;28;44972;-60
2023/12/23 01:25:22;;;;;;;;;0.67;0.67;;;;;15.22;100.00;101373.88;2088873;28;44908;-62
2023/12/23 01:26:22;;;;;;;;;1.25;0.25;;;;;15.20;100.00;101373.91;2087188;28;44965;-62
2023/12/23 01:27:23;;;;;;;;;1.67;1.00;;;;;15.15;100.00;101372.31;2088371;28;44991;-62
2023/12/23 01:28:23;;;;;;;;;1.33;1.00;;;;;15.16;100.00;101377.63;2088177;28;44921;-61
2023/12/23 01:29:24;;;;;;;;;1.00;1.00;;;;;15.13;100.00;101384.84;2088749;28;45027;-63
2023/12/23 01:30:24;;;;;;;;;0.00;0.00;;;;;15.11;100.00;101382.19;2088502;28;45059;-63
2023/12/23 01:31:24;;;;;;;;;1.00;1.00;;;;;15.12;100.00;101383.06;2088211;28;44934;-62
2023/12/23 01:32:24;;;;;;;;;1.33;0.33;;;;;15.10;100.00;101383.13;2088837;28;44979;-62
2023/12/23 01:33:25;;;;;;;;;0.00;0.00;;;;;15.09;100.00;101377.81;2088486;28;44822;-63
2023/12/23 01:34:25;;;;;;;;;0.00;0.00;;;;;15.09;100.00;101386.72;2088791;28;44829;-63
2023/12/23 01:35:26;;;;;;;;;1.00;1.00;;;;;15.10;100.00;101392.94;2088530;28;44933;-62
2023/12/23 01:36:26;;;;;;;;;0.00;0.00;;;;;15.07;100.00;101387.69;2088304;28;44865;-61
2023/12/23 01:37:26;;;;;;;;;1.00;1.00;;;;;15.08;100.00;101395.66;2088472;28;44767;-62
2023/12/23 01:38:27;;;;;;;;;1.00;0.33;;;;;15.05;100.00;101397.56;2087136;28;44924;-63
2023/12/23 01:39:28;;;;;;;;;0.00;0.00;;;;;15.05;100.00;101398.44;2092602;28;44945;-59
2023/12/23 01:40:28;;;;;;;;;1.67;1.00;;;;;15.06;100.00;101399.31;2088411;28;44895;-60
2023/12/23 01:41:28;;;;;;;;;0.00;0.00;;;;;15.01;100.00;101397.66;2086919;28;44763;-61
2023/12/23 01:42:28;;;;;;;;;1.00;0.00;;;;;15.04;100.00;101402.03;2088762;28;44777;-61
2023/12/23 01:43:29;;;;;;;;;1.00;1.00;;;;;15.03;100.00;101389.59;2088270;28;44975;-61
2023/12/23 01:44:29;;;;;;;;;1.00;0.67;;;;;15.00;100.00;101390.56;2088175;28;44985;-61
2023/12/23 01:45:29;;;;;;;;;1.00;1.00;;;;;15.01;100.00;101392.31;2090587;28;45000;-61
2023/12/23 01:46:31;;;;;;;;;2.33;0.67;;;;;14.99;100.00;101391.50;2088584;28;44854;-63
2023/12/23 01:47:32;;;;;;;;;1.00;0.50;;;;;15.00;100.00;101393.25;2088157;28;44756;-60
2023/12/23 01:48:36;;;;;;;;;0.50;0.50;;;;;15.05;100.00;101390.41;2088436;28;44850;-61
2023/12/23 01:49:37;;;;;;;;;0.75;0.75;;;;;15.04;100.00;101379.78;2088128;28;44960;-60
2023/12/23 01:50:38;;;;;;;;;1.00;0.00;;;;;15.02;100.00;101375.34;2079273;28;45037;-61
2023/12/23 01:51:38;;;;;;;;;2.00;0.75;;;;;15.02;100.00;101375.34;2078979;28;45000;-61
2023/12/23 01:52:39;;;;;;;;;0.00;0.00;;;;;15.02;100.00;101364.66;2088256;28;44798;-61
2023/12/23 01:53:40;;;;;;;;;1.00;1.00;;;;;15.05;100.00;101358.34;2088263;28;44925;-62
2023/12/23 01:54:41;;;;;;;;;0.50;0.50;;;;;15.05;100.00;101366.38;2088250;28;44852;-62
2023/12/23 01:55:41;;;;;;;;;0.00;0.00;;;;;15.08;100.00;101365.38;2088230;28;44962;-61
2023/12/23 01:56:43;;;;;;;;;0.00;0.00;;;;;15.07;100.00;101361.84;2088954;28;44926;-61
2023/12/23 01:57:43;;;;;;;;;0.00;0.00;;;;;15.09;100.00;101375.16;2079058;28;45154;-59
2023/12/23 01:58:43;;;;;;;;;0.00;0.00;;;;;15.06;100.00;101365.44;2082474;28;44858;-61
2023/12/23 01:59:44;;;;;;;;;0.33;0.33;;;;;15.06;100.00;101368.09;2088045;28;45431;-62
2023/12/23 02:00:44;;;;;;;;;1.00;1.00;;;;;15.05;100.00;101376.19;2087626;28;44993;-61
2023/12/23 02:01:45;;;;;;;;;0.00;0.00;;;;;15.05;100.00;101370.84;2088111;28;45021;-61
2023/12/23 02:02:47;;;;;;;;;0.00;0.00;;;;;15.03;100.00;101368.22;2084909;28;45047;-60
2023/12/23 02:03:47;;;;;;;;;2.00;0.25;;;;;15.00;100.00;101363.84;2087547;28;44898;-61
2023/12/23 02:04:48;;;;;;;;;0.00;0.00;;;;;15.04;100.00;101359.25;2087739;28;44795;-61
2023/12/23 02:05:48;;;;;;;;;0.00;0.00;;;;;15.00;100.00;101363.84;2087934;28;45038;-61
2023/12/23 02:06:48;;;;;;;;;0.00;0.00;;;;;15.00;100.00;101355.81;2087435;28;44974;-61
2023/12/23 02:07:49;;;;;;;;;1.00;1.00;;;;;15.02;100.00;101361.13;2080789;28;45169;-61
2023/12/23 02:08:49;;;;;;;;;2.00;0.67;;;;;15.05;100.00;101353.00;2087944;28;44968;-60
2023/12/23 02:09:50;;;;;;;;;1.00;0.67;;;;;15.05;100.00;101350.31;2088164;28;45213;-61
2023/12/23 02:11:02;;;;;;;;;0.67;0.67;;;;;15.08;100.00;101346.69;2096009;28;45569;-61
2023/12/23 02:12:19;;;;;;;;;0.00;0.00;;;;;15.10;100.00;101358.19;2094958;28;44937;-61
2023/12/23 02:13:24;;;;;;;;;2.50;1.00;;;;;15.09;100.00;101351.97;2088267;28;44894;-61
2023/12/23 02:14:42;;;;;;;;;2.75;1.50;;;;;15.11;100.00;101359.94;2087516;28;44985;-60
2023/12/23 02:15:46;;;;;;;;;0.00;0.00;;;;;15.08;100.00;101350.22;2088420;28;44850;-61
2023/12/23 02:16:47;;;;;;;;;0.25;0.25;;;;;15.02;100.00;101340.59;2087006;28;45141;-60
2023/12/23 02:17:57;;;;;;;;;0.00;0.00;;;;;15.00;100.00;101341.59;2093902;28;44917;-61
2023/12/23 02:18:57;;;;;;;;;0.00;0.00;;;;;15.02;100.00;101339.72;2087269;28;44949;-61
2023/12/23 02:19:57;;;;;;;;;0.00;0.00;;;;;15.03;100.00;101344.16;2088153;28;44874;-62
2023/12/23 02:20:58;;;;;;;;;0.00;0.00;;;;;15.02;100.00;101342.41;2088020;28;44772;-61
2023/12/23 02:21:58;;;;;;;;;0.00;0.00;;;;;15.00;100.00;101339.78;2087824;28;44955;-62
2023/12/23 02:22:58;;;;;;;;;0.00;0.00;;;;;15.00;100.00;101326.41;2087532;28;44996;-61
2023/12/23 02:23:59;;;;;;;;;0.00;0.00;;;;;15.00;100.00;101337.09;2088407;28;45244;-61
2023/12/23 02:24:59;;;;;;;;;0.00;0.00;;;;;15.04;100.00;101329.88;2088200;28;44847;-61
2023/12/23 02:26:01;;;;;;;;;2.00;1.00;;;;;15.06;100.00;101333.34;2087749;28;44889;-62
2023/12/23 02:27:09;;;;;;;;;0.00;0.00;;;;;15.08;100.00;101334.19;2087566;28;44876;-61
2023/12/23 02:28:13;;;;;;;;;1.00;0.00;;;;;15.09;100.00;101340.41;2087914;28;44980;-62
2023/12/23 02:29:16;;;;;;;;;1.00;1.00;;;;;15.08;100.00;101341.31;2087881;28;44960;-60
2023/12/23 02:30:18;;;;;;;;;0.00;0.00;;;;;15.09;100.00;101333.25;2087874;28;45104;-60
2023/12/23 02:31:21;;;;;;;;;0.00;0.00;;;;;15.10;100.00;101344.81;2086784;28;44889;-60
2023/12/23 02:32:22;;;;;;;;;0.00;0.00;;;;;15.08;100.00;101350.22;2084710;28;44876;-60
2023/12/23 02:33:22;;;;;;;;;0.00;0.00;;;;;15.11;100.00;101357.25;2088043;28;44900;-62
2023/12/23 02:34:24;;;;;;;;;0.00;0.00;;;;;15.10;100.00;101355.50;2088292;28;44816;-61
2023/12/23 02:35:26;;;;;;;;;0.75;0.00;;;;;15.11;100.00;101357.25;2087837;28;44893;-61
2023/12/23 02:36:27;;;;;;;;;0.00;0.00;;;;;15.09;100.00;101360.00;2086425;28;44969;-61
2023/12/23 02:37:27;;;;;;;;;1.00;1.00;;;;;15.10;100.00;101359.06;2081711;28;44924;-61
2023/12/23 02:38:27;;;;;;;;;0.00;0.00;;;;;15.10;100.00;101359.06;2088167;28;44799;-60
2023/12/23 02:39:27;;;;;;;;;0.00;0.00;;;;;15.11;100.00;101357.25;2087729;28;44821;-58
2023/12/23 02:40:28;;;;;;;;;0.00;0.00;;;;;15.11;100.00;101355.47;2088201;28;44819;-61
2023/12/23 02:41:28;;;;;;;;;0.00;0.00;;;;;15.10;100.00;101352.84;2083337;28;44877;-61
2023/12/23 02:42:29;;;;;;;;;0.00;0.00;;;;;15.11;100.00;101355.47;2079947;28;44958;-60
2023/12/23 02:43:29;;;;;;;;;0.67;0.67;;;;;15.10;100.00;101343.03;2087733;28;44878;-60
2023/12/23 02:44:29;;;;;;;;;0.00;0.00;;;;;15.11;100.00;101342.09;2088072;28;44945;-60
2023/12/23 02:45:30;;;;;;;;;1.00;0.00;;;;;15.11;100.00;101344.78;2088452;28;45246;-61
2023/12/23 02:46:30;;;;;;;;;0.00;0.00;;;;;15.10;100.00;101332.34;2088087;28;44822;-60
2023/12/23 02:47:30;;;;;;;;;0.00;0.00;;;;;15.11;100.00;101343.91;2087956;28;44770;-61
2023/12/23 02:48:31;;;;;;;;;0.33;0.00;;;;;15.11;100.00;101339.44;2081171;28;44834;-60
2023/12/23 02:49:31;;;;;;;;;0.00;0.00;;;;;15.12;100.00;101337.63;2084613;28;44858;-61
2023/12/23 02:50:31;;;;;;;;;0.00;0.00;;;;;15.12;100.00;101335.88;2088213;28;44915;-60
2023/12/23 02:51:32;;;;;;;;;0.00;0.00;;;;;15.12;100.00;101348.31;2088194;28;44819;-61
2023/12/23 02:52:32;;;;;;;;;0.00;0.00;;;;;15.14;100.00;101341.16;2087754;28;44910;-61
2023/12/23 02:53:32;;;;;;;;;0.00;0.00;;;;;15.14;100.00;101338.47;2088104;28;44874;-61
2023/12/23 02:54:33;;;;;;;;;0.00;0.00;;;;;15.14;100.00;101338.47;2089197;28;44901;-61
2023/12/23 02:55:35;;;;;;;;;0.00;0.00;;;;;15.15;100.00;101346.44;2088020;28;45070;-61
2023/12/23 02:56:35;;;;;;;;;0.75;0.75;;;;;15.16;100.00;101344.66;2080251;28;44852;-60
2023/12/23 02:57:35;;;;;;;;;0.00;0.00;;;;;15.16;100.00;101344.66;2088239;28;44931;-60
2023/12/23 02:58:36;;;;;;;;;0.00;0.00;;;;;15.15;100.00;101345.56;2089305;28;44928;-61
2023/12/23 02:59:36;;;;;;;;;0.67;0.00;;;;;15.15;100.00;101338.44;2088030;28;45059;-61
2023/12/23 03:00:36;;;;;;;;;0.00;0.00;;;;;15.15;100.00;101340.22;2083660;28;45033;-61
2023/12/23 03:01:37;;;;;;;;;0.00;0.00;;;;;15.13;100.00;101347.44;2089439;28;45329;-61
2023/12/23 03:02:37;;;;;;;;;2.00;0.00;;;;;15.15;100.00;101340.22;2087703;28;44958;-61
2023/12/23 03:03:37;;;;;;;;;0.00;0.00;;;;;15.15;100.00;101348.25;2088331;28;44821;-61
2023/12/23 03:04:38;;;;;;;;;1.00;0.00;;;;;15.15;100.00;101343.78;2095617;28;45363;-61
2023/12/23 03:05:38;;;;;;;;;0.00;0.00;;;;;15.15;100.00;101346.44;2089288;28;44946;-62
2023/12/23 03:06:38;;;;;;;;;0.00;0.00;;;;;15.17;100.00;101347.28;2089732;28;45203;-61
2023/12/23 03:07:38;;;;;;;;;1.00;0.67;;;;;15.19;100.00;101349.91;2089307;28;44974;-61
2023/12/23 03:08:39;;;;;;;;;1.67;1.00;;;;;15.19;100.00;101344.56;2089274;28;44988;-62
2023/12/23 03:09:39;;;;;;;;;0.00;0.00;;;;;15.17;100.00;101343.72;2089728;28;44866;-60
2023/12/23 03:10:39;;;;;;;;;0.33;0.33;;;;;15.17;100.00;101344.59;2089416;28;44842;-61
2023/12/23 03:11:40;;;;;;;;;0.00;0.00;;;;;15.17;100.00;101365.13;2089534;28;45354;-61
2023/12/23 03:12:40;;;;;;;;;0.00;0.00;;;;;15.17;100.00;101352.63;2089292;28;44892;-61
2023/12/23 03:13:40;;;;;;;;;0.00;0.00;;;;;15.19;100.00;101361.47;2089152;28;44878;-61
2023/12/23 03:14:41;;;;;;;;;0.00;0.00;;;;;15.21;100.00;101356.06;2089360;28;44901;-61
2023/12/23 03:15:41;;;;;;;;;0.00;0.00;;;;;15.18;100.00;101365.06;2089162;28;44873;-62
2023/12/23 03:16:41;;;;;;;;;1.00;0.00;;;;;15.19;100.00;101365.94;2088679;28;45249;-62
2023/12/23 03:17:42;;;;;;;;;0.00;0.00;;;;;15.20;100.00;101367.69;2088639;28;45123;-62
2023/12/23 03:18:43;;;;;;;;;0.00;0.00;;;;;15.21;100.00;101362.28;2087964;28;45351;-62
2023/12/23 03:19:43;;;;;;;;;0.00;0.00;;;;;15.22;100.00;101365.84;2088708;28;44990;-62
2023/12/23 03:20:43;;;;;;;;;0.00;0.00;;;;;15.20;100.00;101360.53;2082355;28;44873;-62
2023/12/23 03:21:45;;;;;;;;;0.00;0.00;;;;;15.20;100.00;101373.03;2080956;28;45530;-62
2023/12/23 03:22:46;;;;;;;;;0.00;0.00;;;;;15.19;100.00;101366.81;2081371;28;45179;-61
2023/12/23 03:23:46;;;;;;;;;0.00;0.00;;;;;15.20;100.00;101367.69;2086973;28;45029;-61
2023/12/23 03:24:46;;;;;;;;;0.00;0.00;;;;;15.21;100.00;101364.09;2089203;28;45155;-60
2023/12/23 03:25:47;;;;;;;;;0.00;0.00;;;;;15.22;100.00;101368.50;2089174;28;44834;-61
2023/12/23 03:26:47;;;;;;;;;0.00;0.00;;;;;15.19;100.00;101366.81;2089242;28;44940;-61
2023/12/23 03:27:47;;;;;;;;;0.00;0.00;;;;;15.20;100.00;101362.34;2089386;28;45010;-61
2023/12/23 03:28:48;;;;;;;;;1.67;0.00;;;;;15.21;100.00;101356.94;2089135;28;44813;-61
2023/12/23 03:29:48;;;;;;;;;1.00;0.00;;;;;15.21;100.00;101353.41;2088878;28;44779;-60
2023/12/23 03:30:48;;;;;;;;;0.00;0.00;;;;;15.32;100.00;101356.63;2089177;28;44919;-60
2023/12/23 03:31:48;;;;;;;;;0.00;0.00;;;;;15.36;100.00;101352.91;2088987;28;44816;-60
2023/12/23 03:32:49;;;;;;;;;0.00;0.00;;;;;15.37;100.00;101340.41;2088987;28;44937;-60
2023/12/23 03:33:49;;;;;;;;;1.00;0.00;;;;;15.38;100.00;101343.06;2088710;28;44852;-61
2023/12/23 03:34:49;;;;;;;;;0.00;0.00;;;;;15.39;100.00;101335.94;2089217;28;44870;-61
2023/12/23 03:35:50;;;;;;;;;0.00;0.00;;;;;15.38;100.00;101336.84;2089348;28;44877;-62
2023/12/23 03:36:50;;;;;;;;;1.00;0.00;;;;;15.38;100.00;101331.50;2083773;28;45101;-61
2023/12/23 03:37:50;;;;;;;;;0.00;0.00;;;;;15.35;100.00;101324.44;2083331;28;44924;-59
2023/12/23 03:38:51;;;;;;;;;0.00;0.00;;;;;15.35;100.00;101315.53;2089109;28;44991;-59
2023/12/23 03:39:51;;;;;;;;;0.00;0.00;;;;;15.34;100.00;101309.31;2087218;28;45162;-62
2023/12/23 03:40:52;;;;;;;;;0.67;0.00;;;;;15.36;100.00;101303.91;2089448;28;44806;-62
2023/12/23 03:41:52;;;;;;;;;0.00;0.00;;;;;15.37;100.00;101297.63;2088947;28;44968;-61
2023/12/23 03:42:52;;;;;;;;;0.00;0.00;;;;;15.35;100.00;101295.00;2088951;28;44931;-61
2023/12/23 03:43:53;;;;;;;;;1.00;0.00;;;;;15.36;100.00;101293.22;2088081;28;45048;-61
2023/12/23 03:44:53;;;;;;;;;0.00;0.00;;;;;15.35;100.00;101281.63;2088106;28;44975;-61
2023/12/23 03:45:53;;;;;;;;;0.00;0.00;;;;;15.36;100.00;101287.84;2089255;28;44818;-61
2023/12/23 03:46:56;;;;;;;;;0.00;0.00;;;;;15.36;100.00;101282.50;2088963;28;44933;-60
2023/12/23 03:47:56;;;;;;;;;0.00;0.00;;;;;15.34;100.00;101277.22;2088134;28;44922;-59
2023/12/23 03:48:56;;;;;;;;;0.33;0.00;;;;;15.34;100.00;101282.56;2089326;28;44998;-60
2023/12/23 03:49:56;;;;;;;;;0.00;0.00;;;;;15.34;100.00;101279.88;2089052;28;45012;-60
2023/12/23 03:50:57;;;;;;;;;0.67;0.00;;;;;15.32;100.00;101287.97;2089085;28;44983;-60
2023/12/23 03:51:57;;;;;;;;;0.33;0.00;;;;;15.30;100.00;101289.81;2089229;28;44869;-60
2023/12/23 03:52:57;;;;;;;;;0.00;0.00;;;;;15.23;100.00;101288.25;2089075;28;44875;-60
2023/12/23 03:53:58;;;;;;;;;0.00;0.00;;;;;15.20;100.00;101287.47;2089041;28;44857;-60
2023/12/23 03:54:58;;;;;;;;;0.00;0.00;;;;;15.22;100.00;101289.19;2089133;28;44996;-60
2023/12/23 03:55:58;;;;;;;;;0.00;0.00;;;;;15.21;100.00;101286.56;2089336;28;44964;-60
2023/12/23 03:56:59;;;;;;;;;0.00;0.00;;;;;15.22;100.00;101294.53;2087225;28;44926;-59
2023/12/23 03:57:59;;;;;;;;;0.00;0.00;;;;;15.24;100.00;101286.44;2088650;28;45085;-61
2023/12/23 03:58:59;;;;;;;;;0.00;0.00;;;;;15.26;100.00;101293.53;2088940;28;45058;-60
2023/12/23 04:00:00;;;;;;;;;0.00;0.00;;;;;15.26;100.00;101300.66;2089153;28;45275;-60
2023/12/23 04:01:00;;;;;;;;;0.67;0.00;;;;;15.25;100.00;101312.28;2086269;28;44857;-61
2023/12/23 04:02:00;;;;;;;;;0.00;0.00;;;;;15.24;100.00;101298.03;2089415;28;44901;-60
2023/12/23 04:03:01;;;;;;;;;0.67;0.00;;;;;15.22;100.00;101313.25;2088760;28;45764;-60
2023/12/23 04:04:01;;;;;;;;;2.00;0.00;;;;;15.20;100.00;101304.41;2088849;28;44908;-61
2023/12/23 04:05:03;;;;;;;;;0.00;0.00;;;;;15.19;100.00;101308.00;2088424;28;44888;-62
2023/12/23 04:06:03;;;;;;;;;0.00;0.00;;;;;15.22;100.00;101309.69;2088392;28;45004;-60
2023/12/23 04:07:04;;;;;;;;;0.00;0.00;;;;;15.21;100.00;101311.50;2088689;28;45032;-60
2023/12/23 04:08:05;;;;;;;;;0.00;0.00;;;;;15.22;100.00;101312.38;2089591;28;44954;-59
2023/12/23 04:09:06;;;;;;;;;0.25;0.00;;;;;15.23;100.00;101306.97;2088769;28;44968;-61
2023/12/23 04:10:07;;;;;;;;;0.00;0.00;;;;;15.25;100.00;101310.50;2089032;28;44792;-62
2023/12/23 04:11:07;;;;;;;;;0.00;0.00;;;;;15.27;100.00;101313.13;2087477;28;44832;-62
2023/12/23 04:12:11;;;;;;;;;0.00;0.00;;;;;15.28;100.00;101305.03;2087962;28;44938;-61
2023/12/23 04:13:11;;;;;;;;;1.00;0.00;;;;;15.24;100.00;101300.69;2089089;28;44997;-61
2023/12/23 04:14:11;;;;;;;;;0.00;0.00;;;;;15.25;100.00;101302.47;2087253;28;45920;-61
2023/12/23 04:15:12;;;;;;;;;0.00;0.00;;;;;15.26;100.00;101290.84;2089244;28;45364;-60
2023/12/23 04:16:12;;;;;;;;;0.00;0.00;;;;;15.23;100.00;101290.94;2081645;28;45002;-60
2023/12/23 04:17:12;;;;;;;;;0.00;0.00;;;;;15.24;100.00;101289.13;2086469;28;44895;-61
2023/12/23 04:18:13;;;;;;;;;0.00;0.00;;;;;15.24;100.00;101289.13;2088616;28;44880;-61
2023/12/23 04:19:13;;;;;;;;;1.00;0.00;;;;;15.23;100.00;101279.34;2088713;28;44785;-61
2023/12/23 04:20:13;;;;;;;;;0.00;0.00;;;;;15.25;100.00;101274.88;2088859;28;44889;-60
2023/12/23 04:21:14;;;;;;;;;0.33;0.00;;;;;15.20;100.00;101275.00;2088739;28;44781;-60
2023/12/23 04:22:14;;;;;;;;;0.00;0.00;;;;;15.17;100.00;101269.75;2087393;28;45088;-59
2023/12/23 04:23:14;;;;;;;;;0.00;0.00;;;;;15.17;100.00;101271.53;2088358;28;44922;-62
2023/12/23 04:24:15;;;;;;;;;0.00;0.00;;;;;15.14;100.00;101266.31;2088905;28;44893;-61
2023/12/23 04:25:15;;;;;;;;;0.00;0.00;;;;;15.13;100.00;101256.53;2080032;28;45012;-60
2023/12/23 04:26:15;;;;;;;;;0.00;0.00;;;;;15.12;100.00;101261.00;2080325;28;44919;-61
2023/12/23 04:27:17;;;;;;;;;0.00;0.00;;;;;15.10;100.00;101256.59;2088647;28;44961;-61
2023/12/23 04:28:24;;;;;;;;;0.00;0.00;;;;;15.09;100.00;101268.22;2089104;28;44953;-58
2023/12/23 04:29:24;;;;;;;;;0.00;0.00;;;;;15.05;100.00;101271.94;2086379;28;44965;-60
2023/12/23 04:30:24;;;;;;;;;0.00;0.00;;;;;15.04;100.00;101265.72;2085884;28;44988;-59
2023/12/23 04:31:25;;;;;;;;;0.33;0.00;;;;;15.07;100.00;101262.94;2089086;28;45470;-59
2023/12/23 04:32:25;;;;;;;;;0.67;0.00;;;;;15.01;100.00;101257.78;2088560;28;44816;-61
2023/12/23 04:33:26;;;;;;;;;0.00;0.00;;;;;15.10;100.00;101264.63;2086314;28;44925;-61
2023/12/23 04:34:26;;;;;;;;;0.00;0.00;;;;;15.09;100.00;101262.88;2088575;28;44983;-61
2023/12/23 04:35:26;;;;;;;;;0.00;0.00;;;;;15.11;100.00;101274.41;2088870;28;44973;-59
2023/12/23 04:36:26;;;;;;;;;0.67;0.00;;;;;15.10;100.00;101275.31;2088603;28;44784;-60
2023/12/23 04:37:27;;;;;;;;;0.00;0.00;;;;;15.07;100.00;101286.13;2087271;28;45139;-59
2023/12/23 04:38:27;;;;;;;;;0.00;0.00;;;;;15.04;100.00;101300.47;2088920;28;44922;-59
2023/12/23 04:39:27;;;;;;;;;0.00;0.00;;;;;15.04;100.00;101288.88;2089226;28;44868;-62